Archival Weather

Heathrow

London, United Kingdom (EGLL)

Report from: Thursday, September 21, 2023 6:50 AM BST
Current time: Sunday, July 14, 2024 11:28 AM BST

Current weather – Weather history – Daily summaries
Weather forecast

Temperature10.0°C (50.0°F)
Wind chill8.8°C (47.8°F)
Dew point10.0°C (50.0°F)
Winds 5 kts (2.6 m/s, 5.8 mph) Vrb
Winds variableWinds variable from South-Southeast (150°) to Southwest (220°)
Visibility6.2 mi. (10 km)
Clouds Sky clear
Altimeter29.41 in.Hg (996 mB)
Relative humidity100 %
Density altitude165 ft. (50 m)
Remarks Fully automated report
No clouds detected
No significant changes expected in the next two hours
Flight conditions Visual Meteorological Conditions
Raw dataEGLL 210550Z AUTO 18005KT 150V220 9999 NCD 10/10 Q0996 NOSIG
An error has occurred. This application may no longer respond until reloaded. Reload 🗙